This is the latest recevied weather packets stored in our database for station/object K7KAR-2. If no packets are shown the sender has not sent any weather packets the latest 10 day(s).
| Time | Temp. | Humidity | Pressure | Rain* | Wind** | Luminosity | Snow |
|---|---|---|---|---|---|---|---|
| 1778260821 | 17.78° C | 22% | 1012.9 hPa | 0 mm | - | 571 W/m² | - |
| 1778260518 | 17.78° C | 22% | 1013.3 hPa | 0 mm | - | 692 W/m² | - |
| 1778260214 | 17.78° C | 21% | 1013.2 hPa | 0 mm | - | 710 W/m² | - |
| 1778259912 | 17.22° C | 23% | 1013.2 hPa | 0 mm | - | 329 W/m² | - |
| 1778259609 | 16.67° C | 25% | 1013.4 hPa | 0 mm | - | 301 W/m² | - |
| 1778259307 | 16.67° C | 25% | 1013.3 hPa | 0 mm | - | 303 W/m² | - |
| 1778259003 | 17.22° C | 25% | 1013.4 hPa | 0 mm | - | 275 W/m² | - |
| 1778258699 | 17.22° C | 25% | 1013 hPa | 0 mm | - | 271 W/m² | - |
| 1778258396 | 17.22° C | 24% | 1013.3 hPa | 0 mm | - | 294 W/m² | - |
| 1778258094 | 17.22° C | 24% | 1013.5 hPa | 0 mm | - | 270 W/m² | - |
| 1778257789 | 17.22° C | 23% | 1013.3 hPa | 0 mm | - | 355 W/m² | - |
| 1778257488 | 17.78° C | 24% | 1013.4 hPa | 0 mm | - | 355 W/m² | - |
| 1778257184 | 16.67° C | 24% | 1013.3 hPa | 0 mm | - | 406 W/m² | - |
| 1778256881 | 16.67° C | 26% | 1013.6 hPa | 0 mm | - | 346 W/m² | - |
| 1778256578 | 16.67° C | 26% | 1013.5 hPa | 0 mm | - | 1004 W/m² | - |
| 1778256277 | 16.11° C | 29% | 1013.7 hPa | 0 mm | - | 799 W/m² | - |
| 1778255973 | 17.22° C | 27% | 1013.6 hPa | 0 mm | - | 611 W/m² | - |
| 1778255670 | 17.22° C | 27% | 1013.6 hPa | 0 mm | - | 843 W/m² | - |
| 1778255367 | 16.67° C | 30% | 1013.7 hPa | 0 mm | - | 759 W/m² | - |
| 1778255065 | 16.11° C | 30% | 1013.6 hPa | 0 mm | - | 825 W/m² | - |
| 1778254761 | 15° C | 34% | 1013.7 hPa | 0 mm | - | 629 W/m² | - |
| 1778254458 | 15° C | 35% | 1013.7 hPa | 0 mm | - | 284 W/m² | - |
| 1778254154 | 15° C | 36% | 1013.8 hPa | 0 mm | - | 753 W/m² | - |
| 1778253851 | 15° C | 38% | 1014 hPa | 0 mm | - | 804 W/m² | - |
| 1778253548 | 15° C | 37% | 1013.7 hPa | 0 mm | - | 794 W/m² | - |
* Rain latest hour (hover to see other rain measurements)
** Current wind speed in m/s (hover to see current wind gust speed)